createdAt,value
2023-05-10T00:01:59.513Z,8.45
2023-05-10T00:05:02.823Z,9.63
2023-05-10T00:08:05.790Z,7.53
2023-05-10T00:11:08.518Z,8.43
2023-05-10T00:14:12.685Z,6.80
2023-05-10T00:17:15.724Z,8.48
2023-05-10T00:20:18.834Z,7.80
2023-05-10T00:23:21.870Z,7.90
2023-05-10T00:26:24.625Z,7.10
2023-05-10T00:29:30.507Z,9.40
2023-05-10T00:32:33.363Z,7.50
2023-05-10T00:35:36.211Z,9.20
2023-05-10T00:38:39.192Z,9.52
2023-05-10T00:41:41.930Z,9.75
2023-05-10T00:44:44.785Z,8.90
2023-05-10T00:47:47.805Z,10.80
2023-05-10T00:50:50.806Z,10.07
2023-05-10T00:53:55.072Z,13.20
2023-05-10T00:56:58.485Z,13.98
2023-05-10T01:00:02.516Z,11.45
2023-05-10T01:03:06.632Z,10.63
2023-05-10T01:06:11.046Z,9.63
2023-05-10T01:09:13.860Z,10.70
2023-05-10T01:12:16.688Z,12.30
2023-05-10T01:15:21.378Z,11.90
2023-05-10T01:18:25.804Z,11.02
2023-05-10T01:21:50.971Z,10.27
2023-05-10T01:25:09.161Z,10.52
2023-05-10T01:28:28.288Z,9.90
2023-05-10T01:32:15.918Z,9.73
2023-05-10T01:35:41.256Z,10.45
2023-05-10T01:38:51.578Z,12.13
2023-05-10T01:42:04.606Z,11.57
2023-05-10T01:45:13.141Z,13.18
2023-05-10T01:48:16.347Z,10.43
2023-05-10T01:51:25.005Z,12.75
2023-05-10T01:54:30.021Z,12.27
2023-05-10T01:57:36.186Z,11.32
2023-05-10T02:00:44.087Z,12.65
2023-05-10T02:03:48.888Z,11.77
2023-05-10T02:06:54.073Z,12.73
2023-05-10T02:09:56.863Z,13.17
2023-05-10T02:13:01.745Z,11.40
2023-05-10T02:16:06.597Z,12.13
2023-05-10T02:19:11.564Z,14.05
2023-05-10T02:22:16.512Z,12.20
2023-05-10T02:25:22.063Z,12.13
2023-05-10T02:28:27.246Z,15.05
2023-05-10T02:31:33.262Z,10.20
2023-05-10T02:34:36.496Z,13.20
2023-05-10T02:37:40.945Z,11.00
2023-05-10T02:40:45.666Z,11.40
2023-05-10T02:43:50.774Z,12.10
2023-05-10T02:46:53.982Z,10.85
2023-05-10T02:49:58.419Z,15.35
2023-05-10T02:53:05.593Z,11.82
2023-05-10T02:56:18.448Z,13.63
2023-05-10T02:59:21.468Z,13.18
2023-05-10T03:02:24.326Z,16.15
2023-05-10T03:05:27.084Z,16.70
2023-05-10T03:08:30.582Z,16.67
2023-05-10T03:12:03.959Z,17.07
2023-05-10T03:15:15.548Z,17.83
2023-05-10T03:18:24.463Z,20.42
2023-05-10T03:21:31.093Z,21.70
2023-05-10T03:24:36.469Z,17.42
2023-05-10T03:27:43.970Z,16.77
2023-05-10T03:30:47.389Z,21.27
2023-05-10T03:33:51.397Z,22.25
2023-05-10T03:36:59.870Z,18.15
2023-05-10T03:40:07.603Z,18.65
2023-05-10T03:43:12.665Z,19.30
2023-05-10T03:46:15.485Z,17.60
2023-05-10T03:49:18.663Z,19.48
2023-05-10T03:52:21.846Z,17.58
2023-05-10T03:55:24.996Z,18.20
2023-05-10T03:58:27.912Z,16.87
2023-05-10T04:01:30.727Z,16.98
2023-05-10T04:04:33.666Z,17.50
2023-05-10T04:07:36.370Z,15.95
2023-05-10T04:10:39.131Z,16.23
2023-05-10T04:13:41.937Z,15.37
2023-05-10T04:16:44.690Z,14.00
2023-05-10T04:19:47.440Z,14.93
2023-05-10T04:22:50.182Z,13.05
2023-05-10T04:25:53.009Z,15.35
2023-05-10T04:28:55.789Z,13.73
2023-05-10T04:31:58.904Z,13.65
2023-05-10T04:35:04.067Z,14.90
2023-05-10T04:38:06.788Z,15.90
2023-05-10T04:41:11.175Z,12.02
2023-05-10T04:44:13.933Z,12.43
2023-05-10T04:47:17.461Z,13.10
2023-05-10T04:50:20.723Z,12.60
2023-05-10T04:53:24.035Z,12.25
2023-05-10T04:56:26.779Z,10.70
2023-05-10T04:59:29.571Z,15.77
2023-05-10T05:02:32.431Z,12.82
2023-05-10T05:05:35.829Z,12.13
2023-05-10T05:08:38.628Z,11.85
2023-05-10T05:11:41.533Z,13.45
2023-05-10T05:14:47.070Z,12.20
2023-05-10T05:17:49.871Z,12.77
2023-05-10T05:20:52.737Z,10.35
2023-05-10T05:23:55.715Z,9.75
2023-05-10T05:26:58.404Z,9.93
2023-05-10T05:33:04.144Z,10.98
2023-05-10T05:36:07.423Z,10.18
2023-05-10T05:39:10.322Z,9.35
2023-05-10T05:42:14.392Z,10.52
2023-05-10T05:45:17.578Z,9.60
2023-05-10T05:48:21.261Z,9.27
2023-05-10T05:51:24.287Z,9.57
2023-05-10T05:54:28.348Z,10.27
2023-05-10T05:57:31.355Z,12.20
2023-05-10T06:00:34.195Z,8.60
2023-05-10T06:03:37.238Z,8.40
2023-05-10T06:06:40.267Z,9.13
2023-05-10T06:09:43.227Z,8.57
2023-05-10T06:12:46.243Z,10.30
2023-05-10T06:15:49.255Z,12.37
2023-05-10T06:18:52.268Z,9.50
2023-05-10T06:21:55.030Z,9.88
2023-05-10T06:24:57.914Z,9.20
2023-05-10T06:28:01.106Z,10.60
2023-05-10T06:31:06.124Z,8.33
2023-05-10T06:34:09.335Z,11.48
2023-05-10T06:37:13.578Z,10.32
2023-05-10T06:40:19.702Z,9.10
2023-05-10T06:43:23.840Z,8.80
2023-05-10T06:46:27.034Z,10.13
2023-05-10T06:49:29.872Z,8.55
2023-05-10T06:52:32.867Z,8.38
2023-05-10T06:55:55.739Z,11.18
2023-05-10T06:58:59.148Z,9.55
2023-05-10T07:02:02.088Z,8.70
2023-05-10T07:05:05.682Z,9.27
2023-05-10T07:08:09.522Z,11.38
2023-05-10T07:11:12.681Z,9.02
2023-05-10T07:14:15.608Z,10.70
2023-05-10T07:17:18.575Z,11.93
2023-05-10T07:20:22.731Z,9.75
2023-05-10T07:23:25.872Z,9.38
2023-05-10T07:26:29.572Z,8.40
2023-05-10T07:29:32.576Z,10.70
2023-05-10T07:32:35.608Z,9.93
2023-05-10T07:35:39.013Z,9.80
2023-05-10T07:38:42.359Z,10.90
2023-05-10T07:41:45.251Z,8.40
2023-05-10T07:44:48.333Z,9.55
2023-05-10T07:47:52.683Z,8.50
2023-05-10T07:50:55.645Z,8.30
2023-05-10T07:53:59.141Z,8.70
2023-05-10T07:57:02.721Z,9.88
2023-05-10T08:00:06.659Z,9.10
2023-05-10T08:03:16.298Z,7.90
2023-05-10T08:06:20.800Z,7.95
2023-05-10T08:09:25.363Z,8.15
2023-05-10T08:12:28.414Z,7.70
2023-05-10T08:15:31.246Z,9.13
2023-05-10T08:18:35.003Z,7.53
2023-05-10T08:21:39.584Z,8.10
2023-05-10T08:24:43.119Z,9.68
2023-05-10T08:27:45.987Z,7.78
2023-05-10T08:30:51.319Z,7.80
2023-05-10T08:33:54.435Z,6.73
2023-05-10T08:36:57.241Z,7.70
2023-05-10T08:40:00.119Z,7.50
2023-05-10T08:43:08.388Z,7.38
2023-05-10T08:46:11.888Z,7.00
2023-05-10T08:49:21.261Z,6.87
2023-05-10T08:52:27.238Z,9.95
2023-05-10T08:55:30.008Z,10.05
2023-05-10T08:58:33.239Z,7.82
2023-05-10T09:01:37.907Z,7.30
2023-05-10T09:04:40.877Z,6.37
2023-05-10T09:07:43.640Z,6.55
2023-05-10T09:10:50.439Z,5.85
2023-05-10T09:13:53.745Z,6.40
2023-05-10T09:16:57.464Z,7.15
2023-05-10T09:20:09.184Z,6.47
2023-05-10T09:23:12.072Z,8.50
2023-05-10T09:26:14.907Z,5.47
2023-05-10T09:29:18.209Z,9.38
2023-05-10T09:32:21.211Z,7.18
2023-05-10T09:35:29.632Z,6.37
2023-05-10T09:38:46.427Z,9.65
2023-05-10T09:41:49.494Z,6.85
2023-05-10T09:44:52.191Z,6.78
2023-05-10T09:47:55.389Z,6.13
2023-05-10T09:50:59.405Z,8.97
2023-05-10T09:54:15.948Z,7.85
2023-05-10T09:57:23.198Z,5.75
2023-05-10T10:00:28.445Z,6.15
2023-05-10T10:03:31.399Z,6.75
2023-05-10T10:06:41.068Z,11.73
2023-05-10T10:09:43.857Z,5.93
2023-05-10T10:12:46.660Z,7.30
2023-05-10T10:15:52.361Z,6.07
2023-05-10T10:18:55.528Z,5.93
2023-05-10T10:21:58.363Z,5.47
2023-05-10T10:25:01.654Z,4.57
2023-05-10T10:28:33.567Z,4.93
2023-05-10T10:32:11.302Z,4.93
2023-05-10T10:35:17.190Z,7.38
2023-05-10T10:38:20.184Z,4.10
2023-05-10T10:41:37.230Z,4.38
2023-05-10T10:44:40.372Z,4.68
2023-05-10T10:47:44.673Z,4.50
2023-05-10T10:50:47.871Z,4.25
2023-05-10T10:53:50.688Z,4.47
2023-05-10T10:57:13.480Z,3.83
2023-05-10T11:00:28.510Z,5.07
2023-05-10T11:03:31.330Z,4.03
2023-05-10T11:06:35.950Z,4.45
2023-05-10T11:09:41.720Z,6.20
2023-05-10T11:12:55.265Z,4.68
2023-05-10T11:15:59.942Z,7.28
2023-05-10T11:19:04.067Z,6.53
2023-05-10T11:22:06.900Z,5.25
2023-05-10T11:25:10.024Z,4.97
2023-05-10T11:28:13.807Z,4.97
2023-05-10T11:31:18.213Z,4.55
2023-05-10T11:34:28.433Z,4.60
2023-05-10T11:37:35.311Z,4.68
2023-05-10T11:40:39.236Z,4.10
2023-05-10T11:43:43.048Z,6.45
2023-05-10T11:46:46.098Z,4.05
2023-05-10T11:49:49.571Z,4.55
2023-05-10T11:52:56.500Z,3.67
2023-05-10T11:56:09.588Z,3.77
2023-05-10T11:59:15.906Z,4.18
2023-05-10T12:02:18.768Z,3.60
2023-05-10T12:05:21.963Z,4.57
2023-05-10T12:08:26.743Z,3.72
2023-05-10T12:11:30.976Z,6.23
2023-05-10T12:14:36.229Z,3.88
2023-05-10T12:17:41.949Z,7.07
2023-05-10T12:20:46.193Z,3.67
2023-05-10T12:23:53.673Z,5.28
2023-05-10T12:26:56.687Z,4.67
2023-05-10T12:30:00.990Z,4.68
2023-05-10T12:33:16.277Z,4.05
2023-05-10T12:36:25.158Z,3.30
2023-05-10T12:39:38.251Z,3.92
2023-05-10T12:42:41.665Z,3.90
2023-05-10T12:45:49.067Z,5.10
2023-05-10T12:49:07.636Z,4.13
2023-05-10T12:52:11.658Z,3.72
2023-05-10T12:55:14.603Z,4.40
2023-05-10T12:58:31.465Z,3.83
2023-05-10T13:01:38.227Z,5.20
2023-05-10T13:04:41.178Z,5.10
2023-05-10T13:07:45.008Z,4.10
2023-05-10T13:10:47.784Z,3.50
2023-05-10T13:13:50.621Z,2.97
2023-05-10T13:16:54.473Z,4.28
2023-05-10T13:19:58.045Z,5.43
2023-05-10T13:23:01.520Z,6.72
2023-05-10T13:26:04.530Z,3.85
2023-05-10T13:29:07.721Z,3.83
2023-05-10T13:32:10.456Z,4.10
2023-05-10T13:35:13.254Z,2.95
2023-05-10T13:38:15.959Z,2.60
2023-05-10T13:41:18.803Z,3.30
2023-05-10T13:44:21.740Z,3.50
2023-05-10T13:47:24.456Z,4.40
2023-05-10T13:50:28.073Z,4.07
2023-05-10T13:53:31.043Z,3.40
2023-05-10T13:56:35.744Z,3.72
2023-05-10T13:59:38.580Z,4.80
2023-05-10T14:02:41.950Z,3.65
2023-05-10T14:05:46.166Z,5.53
2023-05-10T14:08:48.978Z,4.80
2023-05-10T14:11:52.232Z,4.75
2023-05-10T14:14:54.915Z,3.67
2023-05-10T14:17:57.682Z,3.58
2023-05-10T14:21:00.648Z,4.05
2023-05-10T14:24:03.440Z,3.90
2023-05-10T14:27:07.152Z,2.65
2023-05-10T14:30:10.404Z,5.23
2023-05-10T14:33:13.589Z,5.40
2023-05-10T14:36:17.323Z,3.40
2023-05-10T14:39:20.518Z,7.97
2023-05-10T14:42:23.203Z,2.70
2023-05-10T14:45:25.915Z,5.47
2023-05-10T14:48:28.657Z,4.63
2023-05-10T14:51:31.385Z,2.15
2023-05-10T14:54:37.221Z,3.22
2023-05-10T14:57:40.149Z,2.22
2023-05-10T15:00:43.098Z,3.07
2023-05-10T15:03:46.352Z,2.95
2023-05-10T15:06:49.460Z,3.63
2023-05-10T15:09:52.976Z,5.55
2023-05-10T15:12:55.738Z,3.72
2023-05-10T15:15:58.514Z,3.10
2023-05-10T15:19:01.396Z,3.15
2023-05-10T15:22:06.105Z,5.18
2023-05-10T15:25:09.259Z,2.97
2023-05-10T15:28:11.960Z,2.75
2023-05-10T15:31:14.784Z,4.17
2023-05-10T15:34:18.979Z,2.95
2023-05-10T15:37:22.424Z,2.50
2023-05-10T15:40:25.124Z,4.20
2023-05-10T15:43:28.108Z,2.95
2023-05-10T15:46:31.643Z,4.50
2023-05-10T15:49:34.905Z,3.35
2023-05-10T15:52:37.732Z,2.28
2023-05-10T15:55:40.626Z,4.55
2023-05-10T15:58:44.174Z,5.50
2023-05-10T16:01:47.037Z,4.97
2023-05-10T16:04:49.739Z,2.63
2023-05-10T16:07:52.538Z,3.97
2023-05-10T16:10:55.246Z,7.07
2023-05-10T16:13:58.006Z,3.97
2023-05-10T16:17:00.867Z,5.87
2023-05-10T16:20:03.908Z,2.95
2023-05-10T16:23:07.806Z,3.72
2023-05-10T16:26:10.621Z,3.90
2023-05-10T16:29:13.384Z,5.15
2023-05-10T16:32:16.091Z,3.93
2023-05-10T16:35:18.945Z,3.40
2023-05-10T16:38:22.238Z,3.25
2023-05-10T16:41:24.982Z,3.97
2023-05-10T16:44:27.782Z,3.88
2023-05-10T16:47:30.508Z,5.13
2023-05-10T16:50:33.331Z,3.63
2023-05-10T16:53:36.493Z,4.90
2023-05-10T16:56:39.192Z,4.60
2023-05-10T16:59:41.971Z,4.13
2023-05-10T17:02:44.772Z,2.20
2023-05-10T17:05:47.618Z,2.80
2023-05-10T17:08:50.409Z,2.97
2023-05-10T17:11:53.134Z,3.92
2023-05-10T17:14:55.921Z,2.35
2023-05-10T17:17:58.767Z,2.23
2023-05-10T17:21:01.538Z,3.42
2023-05-10T17:24:04.337Z,3.08
2023-05-10T17:27:07.218Z,4.28
2023-05-10T17:30:10.345Z,4.38
2023-05-10T17:33:13.065Z,3.23
2023-05-10T17:36:15.790Z,5.07
2023-05-10T17:39:18.566Z,5.30
2023-05-10T17:42:21.414Z,4.05
2023-05-10T17:45:24.100Z,1.88
2023-05-10T17:48:26.847Z,2.33
2023-05-10T17:51:29.668Z,4.85
2023-05-10T17:54:32.412Z,1.98
2023-05-10T17:57:38.134Z,2.60
2023-05-10T18:00:41.009Z,4.40
2023-05-10T18:03:43.694Z,3.33
2023-05-10T18:06:46.360Z,4.10
2023-05-10T18:09:49.018Z,4.18
2023-05-10T18:12:52.493Z,3.92
2023-05-10T18:15:55.218Z,1.73
2023-05-10T18:18:58.250Z,3.17
2023-05-10T18:22:01.046Z,1.77
2023-05-10T18:25:04.695Z,2.58
2023-05-10T18:28:08.443Z,1.92
2023-05-10T18:31:11.266Z,4.40
2023-05-10T18:34:14.002Z,3.80
2023-05-10T18:37:17.098Z,2.83
2023-05-10T18:40:20.012Z,5.00
2023-05-10T18:43:22.760Z,3.17
2023-05-10T18:46:25.626Z,2.22
2023-05-10T18:49:29.492Z,2.10
2023-05-10T18:52:32.653Z,4.30
2023-05-10T18:55:35.384Z,2.78
2023-05-10T18:58:38.590Z,3.47
2023-05-10T19:01:41.916Z,3.42
2023-05-10T19:04:44.860Z,1.70
2023-05-10T19:07:47.893Z,3.35
2023-05-10T19:10:50.950Z,1.65
2023-05-10T19:13:53.614Z,3.10
2023-05-10T19:16:56.446Z,4.10
2023-05-10T19:20:00.136Z,2.80
2023-05-10T19:26:12.480Z,5.60
2023-05-10T19:29:15.308Z,3.00
2023-05-10T19:32:18.261Z,4.20
2023-05-10T19:35:21.394Z,4.13
2023-05-10T19:38:25.533Z,4.00
2023-05-10T19:41:28.742Z,2.47
2023-05-10T19:44:31.806Z,5.22
2023-05-10T19:47:36.388Z,2.35
2023-05-10T19:50:39.204Z,4.03
2023-05-10T19:53:44.875Z,3.58
2023-05-10T19:56:48.031Z,4.53
2023-05-10T19:59:50.782Z,2.65
2023-05-10T20:02:54.169Z,3.78
2023-05-10T20:05:57.476Z,1.70
2023-05-10T20:09:00.502Z,2.88
2023-05-10T20:12:03.420Z,3.63
2023-05-10T20:15:07.911Z,2.83
2023-05-10T20:18:11.067Z,3.42
2023-05-10T20:21:13.795Z,2.37
2023-05-10T20:24:16.512Z,5.30
2023-05-10T20:27:21.176Z,2.78
2023-05-10T20:30:24.170Z,2.75
2023-05-10T20:33:26.912Z,3.00
2023-05-10T20:36:30.286Z,3.97
2023-05-10T20:39:33.144Z,3.55
2023-05-10T20:42:36.233Z,3.92
2023-05-10T20:45:38.992Z,2.83
2023-05-10T20:48:41.732Z,4.40
2023-05-10T20:51:44.475Z,5.17
2023-05-10T20:54:47.145Z,4.65
2023-05-10T20:57:49.843Z,3.47
2023-05-10T21:00:52.558Z,3.95
2023-05-10T21:03:55.206Z,3.40
2023-05-10T21:06:58.029Z,2.60
2023-05-10T21:10:00.853Z,7.72
2023-05-10T21:13:03.628Z,5.40
2023-05-10T21:16:06.577Z,4.63
2023-05-10T21:19:09.380Z,4.72
2023-05-10T21:22:12.104Z,4.83
2023-05-10T21:25:14.790Z,4.47
2023-05-10T21:28:17.473Z,3.03
2023-05-10T21:31:20.370Z,3.17
2023-05-10T21:34:23.098Z,6.38
2023-05-10T21:37:25.833Z,6.40
2023-05-10T21:40:29.157Z,4.75
2023-05-10T21:43:31.869Z,3.38
2023-05-10T21:46:34.594Z,6.15
2023-05-10T21:49:37.310Z,5.55
2023-05-10T21:52:40.158Z,4.43
2023-05-10T21:55:42.821Z,4.72
2023-05-10T21:58:45.822Z,3.28
2023-05-10T22:01:48.697Z,4.78
2023-05-10T22:04:51.613Z,5.45
2023-05-10T22:07:54.286Z,5.67
2023-05-10T22:10:56.945Z,5.93
2023-05-10T22:13:59.721Z,3.65
2023-05-10T22:17:02.479Z,4.97
2023-05-10T22:20:07.448Z,3.75
2023-05-10T22:23:10.171Z,4.67
2023-05-10T22:26:12.989Z,5.82
2023-05-10T22:29:15.760Z,4.22
2023-05-10T22:32:18.625Z,5.95
2023-05-10T22:35:22.151Z,3.80
2023-05-10T22:38:24.833Z,3.90
2023-05-10T22:41:27.537Z,4.30
2023-05-10T22:44:30.285Z,4.65
2023-05-10T22:47:33.796Z,3.40
2023-05-10T22:50:37.254Z,5.80
2023-05-10T22:53:39.966Z,5.20
2023-05-10T22:56:42.782Z,6.05
2023-05-10T22:59:45.559Z,3.30
2023-05-10T23:02:48.338Z,8.75
2023-05-10T23:05:51.211Z,4.18
2023-05-10T23:08:54.825Z,6.00
2023-05-10T23:11:57.561Z,4.43
2023-05-10T23:15:00.210Z,3.85
2023-05-10T23:18:02.977Z,5.82
2023-05-10T23:21:06.105Z,4.28
2023-05-10T23:24:08.913Z,7.37
2023-05-10T23:27:11.687Z,3.63
2023-05-10T23:30:14.683Z,5.18
2023-05-10T23:33:17.398Z,3.70
2023-05-10T23:36:20.073Z,3.72
2023-05-10T23:39:22.786Z,5.30
2023-05-10T23:42:25.691Z,3.85
2023-05-10T23:45:28.485Z,4.65
2023-05-10T23:48:31.410Z,5.78
2023-05-10T23:51:34.187Z,3.75
2023-05-10T23:54:37.041Z,4.00
2023-05-10T23:57:40.015Z,4.25
